Painted Post, New York
Current Conditions -  °F | °C
As of 7:53 AM on Tuesday 21 Oct 2014 (Local Time) from KELM Reporting Station
Light Rain Light Rain  
Wind Chill: 47°   Ceiling: 2700
Heat Index: 47°   Visibility: 8mi
Dew Point: 46°   Wind: 0mph
Humidity: 97%   Direction: NA
Pressure: 29.83"   Gusts: NA
Location:  42.16°N, 77.09°W
Report Text: KELM 211153Z 00000KT 8SM -RA BKN027 OVC036 08/08 A2983 RMK AO2 SLP102 P0000 60001 70004 T00830078 10083 20078 53003
Loading
Personal Weather Stations






























Interactive Weather Map New forecast layout! Learn more

10-Day Weather Forecast

Advertisements
Track Severe Weather on mobile